Time;durP1;ratioP1;P1;durP2;ratioP2;P2;SDS_P1;SDS_P2;PMS_P1;PMS_P2;Temp;Humidity;BMP_temperature;BMP_pressure;BME280_temperature;BME280_humidity;BME280_pressure;Samples;Min_cycle;Max_cycle;Signal;HPM_P1;HPM_P2
2023/05/10 00:03:00;;;;;;;2.20;1.70;;;;;;;;;;12608202;23;20745;-83
2023/05/10 00:08:02;;;;;;;2.22;1.90;;;;;;;;;;12607068;23;20408;-83
2023/05/10 00:13:04;;;;;;;2.37;1.70;;;;;;;;;;12606987;23;20424;-83
2023/05/10 00:18:08;;;;;;;2.88;1.85;;;;;;;;;;12606421;23;20484;-83
2023/05/10 00:23:11;;;;;;;2.38;1.73;;;;;;;;;;12605393;23;20377;-83
2023/05/10 00:28:13;;;;;;;2.15;1.95;;;;;;;;;;12607108;23;20377;-83
2023/05/10 00:33:18;;;;;;;2.40;1.95;;;;;;;;;;12607049;23;20742;-83
2023/05/10 00:38:20;;;;;;;2.30;2.00;;;;;;;;;;12607492;23;20364;-83
2023/05/10 00:43:22;;;;;;;2.78;2.00;;;;;;;;;;12607729;23;20401;-83
2023/05/10 00:48:26;;;;;;;3.53;2.13;;;;;;;;;;12606172;23;20436;-83
2023/05/10 00:53:29;;;;;;;2.43;1.90;;;;;;;;;;12605899;23;20396;-84
2023/05/10 00:58:32;;;;;;;2.95;2.20;;;;;;;;;;12607437;23;20373;-83
2023/05/10 01:03:36;;;;;;;3.00;2.30;;;;;;;;;;12606580;23;20435;-83
2023/05/10 01:08:39;;;;;;;2.83;2.17;;;;;;;;;;12604141;23;20906;-83
2023/05/10 01:13:44;;;;;;;5.75;2.30;;;;;;;;;;12606750;23;20713;-84
2023/05/10 01:18:49;;;;;;;3.03;2.30;;;;;;;;;;12604300;23;20368;-83
2023/05/10 01:24:16;;;;;;;5.07;2.60;;;;;;;;;;12605707;23;20381;-83
2023/05/10 01:29:53;;;;;;;3.08;2.38;;;;;;;;;;12607177;23;20428;-83
2023/05/10 01:35:03;;;;;;;3.88;2.40;;;;;;;;;;12596954;23;20388;-83
2023/05/10 01:40:15;;;;;;;3.13;2.50;;;;;;;;;;12599333;23;20434;-84
2023/05/10 01:45:25;;;;;;;3.17;2.70;;;;;;;;;;12602257;23;20377;-84
2023/05/10 01:50:31;;;;;;;3.90;2.20;;;;;;;;;;12601525;23;20440;-83
2023/05/10 01:55:36;;;;;;;4.75;2.47;;;;;;;;;;12603217;23;20392;-83
2023/05/10 02:00:43;;;;;;;2.93;2.40;;;;;;;;;;12606450;23;20461;-83
2023/05/10 02:05:49;;;;;;;4.90;3.40;;;;;;;;;;12605757;23;20384;-83
2023/05/10 02:10:54;;;;;;;5.00;2.47;;;;;;;;;;12606421;23;20373;-83
2023/05/10 02:15:58;;;;;;;2.47;2.28;;;;;;;;;;12610129;23;20837;-83
2023/05/10 02:21:03;;;;;;;3.13;2.40;;;;;;;;;;12609186;23;20408;-83
2023/05/10 02:26:06;;;;;;;4.37;2.80;;;;;;;;;;12610172;23;20452;-83
2023/05/10 02:31:10;;;;;;;2.70;2.30;;;;;;;;;;12610058;23;20845;-84
2023/05/10 02:36:14;;;;;;;3.25;2.60;;;;;;;;;;12609355;23;20401;-83
2023/05/10 02:41:17;;;;;;;3.03;2.40;;;;;;;;;;12609491;23;20432;-83
2023/05/10 02:46:20;;;;;;;4.20;2.35;;;;;;;;;;12609744;23;20381;-83
2023/05/10 02:51:26;;;;;;;3.38;2.20;;;;;;;;;;12583652;23;20893;-83
2023/05/10 02:56:33;;;;;;;2.92;2.47;;;;;;;;;;12609892;23;20428;-83
2023/05/10 03:01:36;;;;;;;4.65;2.88;;;;;;;;;;12608565;23;20373;-83
2023/05/10 03:06:40;;;;;;;4.63;2.50;;;;;;;;;;12608308;23;20381;-83
2023/05/10 03:11:54;;;;;;;2.80;2.37;;;;;;;;;;12608979;23;20393;-83
2023/05/10 03:17:02;;;;;;;3.53;2.40;;;;;;;;;;12608385;23;20365;-83
2023/05/10 03:22:11;;;;;;;3.03;2.28;;;;;;;;;;12607867;23;20841;-83
2023/05/10 03:27:15;;;;;;;3.13;2.50;;;;;;;;;;12609075;23;20746;-83
2023/05/10 03:32:18;;;;;;;2.60;2.40;;;;;;;;;;12608658;23;20396;-83
2023/05/10 03:37:21;;;;;;;2.90;2.25;;;;;;;;;;12607962;23;20372;-83
2023/05/10 03:42:24;;;;;;;2.40;2.20;;;;;;;;;;12608944;23;20401;-83
2023/05/10 03:47:26;;;;;;;5.07;2.42;;;;;;;;;;12608468;23;20849;-83
2023/05/10 03:52:30;;;;;;;3.17;2.47;;;;;;;;;;12607318;23;20392;-83
2023/05/10 03:57:32;;;;;;;2.70;2.20;;;;;;;;;;12607342;23;20381;-83
2023/05/10 04:02:34;;;;;;;2.72;2.38;;;;;;;;;;12607700;23;20377;-82
2023/05/10 04:07:38;;;;;;;2.70;2.50;;;;;;;;;;12607622;23;20376;-83
2023/05/10 04:12:40;;;;;;;3.00;2.35;;;;;;;;;;12582134;23;20400;-83
2023/05/10 04:17:43;;;;;;;3.05;2.40;;;;;;;;;;12608411;23;20863;-82
2023/05/10 04:22:46;;;;;;;2.73;2.30;;;;;;;;;;12608253;23;20807;-83
2023/05/10 04:27:48;;;;;;;4.00;2.57;;;;;;;;;;12607624;23;20377;-83
2023/05/10 04:32:51;;;;;;;3.65;2.67;;;;;;;;;;12607329;23;20396;-83
2023/05/10 04:37:54;;;;;;;3.30;2.72;;;;;;;;;;12605616;23;20915;-83
2023/05/10 04:42:56;;;;;;;3.05;2.70;;;;;;;;;;12606490;23;20384;-83
2023/05/10 04:47:59;;;;;;;3.50;2.85;;;;;;;;;;12605354;23;20369;-83
2023/05/10 04:53:02;;;;;;;3.63;2.90;;;;;;;;;;12605649;23;20401;-83
2023/05/10 04:58:04;;;;;;;3.42;2.80;;;;;;;;;;12604101;23;20675;-83
2023/05/10 05:03:07;;;;;;;3.42;3.13;;;;;;;;;;12605227;23;20388;-83
2023/05/10 05:08:10;;;;;;;4.30;2.95;;;;;;;;;;12603759;23;20373;-83
2023/05/10 05:13:13;;;;;;;4.22;2.80;;;;;;;;;;12606301;23;20396;-83
2023/05/10 05:18:16;;;;;;;3.65;2.88;;;;;;;;;;12605850;23;20933;-83
2023/05/10 05:23:20;;;;;;;2.90;2.53;;;;;;;;;;12606385;23;20920;-83
2023/05/10 05:28:22;;;;;;;3.95;2.72;;;;;;;;;;12606320;23;20376;-84
2023/05/10 05:33:25;;;;;;;4.23;2.73;;;;;;;;;;12605954;23;20393;-83
2023/05/10 05:38:28;;;;;;;3.42;2.67;;;;;;;;;;12603791;23;20373;-82
2023/05/10 05:43:30;;;;;;;4.57;3.00;;;;;;;;;;12602357;23;20373;-83
2023/05/10 05:48:33;;;;;;;4.40;2.83;;;;;;;;;;12606577;23;21032;-82
2023/05/10 05:53:36;;;;;;;4.35;2.70;;;;;;;;;;12609530;23;20392;-82
2023/05/10 05:58:39;;;;;;;6.38;3.00;;;;;;;;;;12611281;23;20427;-83
2023/05/10 06:03:41;;;;;;;5.10;3.10;;;;;;;;;;12608960;23;20727;-82
2023/05/10 06:08:44;;;;;;;3.80;3.03;;;;;;;;;;12609243;23;20373;-83
2023/05/10 06:13:47;;;;;;;3.92;3.30;;;;;;;;;;12610979;23;20389;-83
2023/05/10 06:18:49;;;;;;;4.30;3.40;;;;;;;;;;12611149;23;20373;-83
2023/05/10 06:23:52;;;;;;;4.28;3.50;;;;;;;;;;12611416;23;20377;-83
2023/05/10 06:28:55;;;;;;;3.80;3.20;;;;;;;;;;12609677;23;20440;-83
2023/05/10 06:33:57;;;;;;;4.57;3.10;;;;;;;;;;12609937;23;20392;-83
2023/05/10 06:39:01;;;;;;;4.50;3.20;;;;;;;;;;12610583;23;20405;-83
2023/05/10 06:44:03;;;;;;;4.35;3.28;;;;;;;;;;12610547;23;20690;-83
2023/05/10 06:49:06;;;;;;;4.57;3.10;;;;;;;;;;12610499;23;20829;-84
2023/05/10 06:54:09;;;;;;;5.83;3.50;;;;;;;;;;12610686;23;20918;-83
2023/05/10 06:59:13;;;;;;;4.07;3.40;;;;;;;;;;12610055;23;20435;-84
2023/05/10 07:04:15;;;;;;;5.17;3.23;;;;;;;;;;12610132;23;20905;-83
2023/05/10 07:09:19;;;;;;;3.63;3.27;;;;;;;;;;12609813;23;20448;-83
2023/05/10 07:14:21;;;;;;;4.88;3.40;;;;;;;;;;12608780;23;20396;-82
2023/05/10 07:19:23;;;;;;;3.97;3.57;;;;;;;;;;12608558;23;20377;-83
2023/05/10 07:24:27;;;;;;;5.97;3.65;;;;;;;;;;12608170;23;20368;-83
2023/05/10 07:29:29;;;;;;;4.60;3.75;;;;;;;;;;12608769;23;20829;-83
2023/05/10 07:34:31;;;;;;;4.25;3.55;;;;;;;;;;12608360;23;20388;-83
2023/05/10 07:39:35;;;;;;;4.43;3.85;;;;;;;;;;12611199;23;20436;-83
2023/05/10 07:44:37;;;;;;;5.38;3.58;;;;;;;;;;12609867;23;20933;-83
2023/05/10 07:49:40;;;;;;;6.93;3.80;;;;;;;;;;12607824;23;20388;-83
2023/05/10 07:54:44;;;;;;;4.03;3.63;;;;;;;;;;12607456;23;20877;-83
2023/05/10 07:59:46;;;;;;;4.72;3.60;;;;;;;;;;12605194;23;20381;-83
2023/05/10 08:04:48;;;;;;;4.63;3.90;;;;;;;;;;12606821;23;20373;-83
2023/05/10 08:09:52;;;;;;;5.70;3.55;;;;;;;;;;12607126;23;20909;-83
2023/05/10 08:14:54;;;;;;;4.78;3.63;;;;;;;;;;12605543;23;20857;-83
2023/05/10 08:19:57;;;;;;;5.78;4.03;;;;;;;;;;12601841;23;20472;-83
2023/05/10 08:25:00;;;;;;;4.57;3.67;;;;;;;;;;12600802;23;20448;-84
2023/05/10 08:30:02;;;;;;;6.37;3.80;;;;;;;;;;12601581;23;20940;-83
2023/05/10 08:35:05;;;;;;;5.07;4.00;;;;;;;;;;12601449;23;20750;-82
2023/05/10 08:40:12;;;;;;;5.23;4.30;;;;;;;;;;12600228;23;20440;-84
2023/05/10 08:45:16;;;;;;;6.65;4.13;;;;;;;;;;12601141;23;20672;-84
2023/05/10 08:50:21;;;;;;;5.10;4.07;;;;;;;;;;12602040;23;20384;-83
2023/05/10 08:55:25;;;;;;;5.90;3.93;;;;;;;;;;12604439;23;20469;-83
2023/05/10 09:00:29;;;;;;;5.00;3.65;;;;;;;;;;12606946;23;20368;-83
2023/05/10 09:05:31;;;;;;;6.03;3.97;;;;;;;;;;12605334;23;20412;-83
2023/05/10 09:10:35;;;;;;;5.00;3.95;;;;;;;;;;12606429;23;20365;-83
2023/05/10 09:15:38;;;;;;;4.97;4.17;;;;;;;;;;12602881;23;20392;-83
2023/05/10 09:20:40;;;;;;;5.20;3.60;;;;;;;;;;12604840;23;20377;-83
2023/05/10 09:25:44;;;;;;;4.63;3.90;;;;;;;;;;12607431;23;20993;-83
2023/05/10 09:30:55;;;;;;;4.45;4.00;;;;;;;;;;12606147;23;20373;-83
2023/05/10 09:36:08;;;;;;;5.38;4.50;;;;;;;;;;12606200;23;20428;-84
2023/05/10 09:41:18;;;;;;;4.45;4.00;;;;;;;;;;12605662;23;20388;-83
2023/05/10 09:46:20;;;;;;;6.77;4.07;;;;;;;;;;12604760;23;20369;-83
2023/05/10 09:51:23;;;;;;;5.30;4.18;;;;;;;;;;12605882;23;20404;-83
2023/05/10 09:56:38;;;;;;;4.57;3.88;;;;;;;;;;12605756;23;20853;-83
2023/05/10 10:01:42;;;;;;;4.57;3.88;;;;;;;;;;12605806;23;20373;-82
2023/05/10 10:06:44;;;;;;;5.93;4.10;;;;;;;;;;12607149;23;20451;-81
2023/05/10 10:11:48;;;;;;;5.93;4.15;;;;;;;;;;12625011;23;20440;-83
2023/05/10 10:16:50;;;;;;;4.95;3.97;;;;;;;;;;12605897;23;20389;-83
2023/05/10 10:21:53;;;;;;;6.55;4.30;;;;;;;;;;12606477;23;20372;-83
2023/05/10 10:27:04;;;;;;;5.75;4.45;;;;;;;;;;12606305;23;20377;-83
2023/05/10 10:32:19;;;;;;;5.07;4.30;;;;;;;;;;12601511;23;20652;-83
2023/05/10 10:37:21;;;;;;;6.05;4.90;;;;;;;;;;12601911;23;20389;-84
2023/05/10 10:42:49;;;;;;;4.53;3.95;;;;;;;;;;12598572;23;21877;-83
2023/05/10 10:48:09;;;;;;;5.72;4.30;;;;;;;;;;12601878;23;20444;-84
2023/05/10 10:53:12;;;;;;;4.97;3.90;;;;;;;;;;12603956;23;20439;-83
2023/05/10 10:58:31;;;;;;;4.72;3.80;;;;;;;;;;12606094;23;20948;-83
2023/05/10 11:03:33;;;;;;;4.82;3.60;;;;;;;;;;12603561;23;20409;-83
2023/05/10 11:08:43;;;;;;;4.60;3.83;;;;;;;;;;12605725;23;20417;-83
2023/05/10 11:13:48;;;;;;;7.10;4.60;;;;;;;;;;12606399;23;20377;-83
2023/05/10 11:18:57;;;;;;;6.53;4.38;;;;;;;;;;12605674;23;20714;-83
2023/05/10 11:24:05;;;;;;;8.10;4.53;;;;;;;;;;12607562;23;20376;-83
2023/05/10 11:29:09;;;;;;;5.47;4.47;;;;;;;;;;12607822;23;20380;-83
2023/05/10 11:34:12;;;;;;;7.47;4.57;;;;;;;;;;12605769;23;20389;-82
2023/05/10 11:39:14;;;;;;;6.93;4.80;;;;;;;;;;12607178;23;20999;-83
2023/05/10 11:44:18;;;;;;;5.97;4.50;;;;;;;;;;12606012;23;20381;-83
2023/05/10 11:49:24;;;;;;;8.27;5.38;;;;;;;;;;12606937;23;20437;-82
2023/05/10 11:54:26;;;;;;;6.80;5.20;;;;;;;;;;12605635;23;20385;-84
2023/05/10 11:59:29;;;;;;;7.50;5.80;;;;;;;;;;12605289;23;20525;-84
2023/05/10 12:04:32;;;;;;;5.87;4.97;;;;;;;;;;12606719;23;20432;-83
2023/05/10 12:09:34;;;;;;;8.68;4.85;;;;;;;;;;12606982;23;20730;-83
2023/05/10 12:14:38;;;;;;;6.73;4.80;;;;;;;;;;12605402;23;20388;-83
2023/05/10 12:19:40;;;;;;;6.68;4.80;;;;;;;;;;12604576;23;20373;-82
2023/05/10 12:24:43;;;;;;;6.40;5.10;;;;;;;;;;12600395;23;20369;-84
2023/05/10 12:29:46;;;;;;;8.27;5.32;;;;;;;;;;12603845;23;20388;-84
2023/05/10 12:34:48;;;;;;;9.68;5.90;;;;;;;;;;12605363;23;20381;-80
2023/05/10 12:39:51;;;;;;;8.25;5.80;;;;;;;;;;12605758;23;20376;-83
2023/05/10 12:44:57;;;;;;;7.60;5.75;;;;;;;;;;12602874;23;20368;-83
2023/05/10 12:50:01;;;;;;;10.05;5.68;;;;;;;;;;12604142;23;20369;-82
2023/05/10 12:55:03;;;;;;;8.93;6.18;;;;;;;;;;12605236;23;20936;-83
2023/05/10 13:00:09;;;;;;;9.02;5.97;;;;;;;;;;12606395;23;20401;-83
2023/05/10 13:05:12;;;;;;;9.65;6.07;;;;;;;;;;12604627;23;20432;-83
2023/05/10 13:10:15;;;;;;;9.77;6.22;;;;;;;;;;12606301;23;20439;-83
2023/05/10 13:15:18;;;;;;;7.85;6.25;;;;;;;;;;12606564;23;20415;-82
2023/05/10 13:20:21;;;;;;;8.20;5.97;;;;;;;;;;12605476;23;20373;-83
2023/05/10 13:25:23;;;;;;;6.72;5.63;;;;;;;;;;12599862;23;20436;-83
2023/05/10 13:30:26;;;;;;;7.70;5.93;;;;;;;;;;12601964;23;20376;-83
2023/05/10 13:35:29;;;;;;;10.60;6.40;;;;;;;;;;12603192;23;20425;-80
2023/05/10 13:40:31;;;;;;;8.35;6.60;;;;;;;;;;12601878;23;20376;-81
2023/05/10 13:45:34;;;;;;;9.98;6.85;;;;;;;;;;12604790;23;20377;-82
2023/05/10 13:50:37;;;;;;;10.85;6.78;;;;;;;;;;12601544;23;20436;-82
2023/05/10 13:55:39;;;;;;;9.43;6.32;;;;;;;;;;12604067;23;20514;-83
2023/05/10 14:00:43;;;;;;;6.87;5.80;;;;;;;;;;12603348;23;20447;-83
2023/05/10 14:05:45;;;;;;;9.63;6.72;;;;;;;;;;12605556;23;20455;-84
2023/05/10 14:10:48;;;;;;;8.27;6.35;;;;;;;;;;12609912;23;20424;-81
2023/05/10 14:15:53;;;;;;;8.13;6.38;;;;;;;;;;12606936;23;20872;-83
2023/05/10 14:20:56;;;;;;;8.20;6.45;;;;;;;;;;12608336;23;20907;-83
2023/05/10 14:25:58;;;;;;;7.82;6.53;;;;;;;;;;12608779;23;20451;-83
2023/05/10 14:31:02;;;;;;;7.70;6.33;;;;;;;;;;12607353;23;20838;-83
2023/05/10 14:36:04;;;;;;;8.88;6.95;;;;;;;;;;12608444;23;20463;-83
2023/05/10 14:41:07;;;;;;;9.80;7.03;;;;;;;;;;12608915;23;20388;-81
2023/05/10 14:46:10;;;;;;;7.97;7.10;;;;;;;;;;12608539;23;20420;-80
2023/05/10 14:51:13;;;;;;;9.47;7.33;;;;;;;;;;12607250;23;20697;-82
2023/05/10 14:56:15;;;;;;;9.00;7.47;;;;;;;;;;12606796;23;20392;-81
2023/05/10 15:01:18;;;;;;;9.82;8.43;;;;;;;;;;12602925;23;20926;-81
2023/05/10 15:06:25;;;;;;;10.38;7.85;;;;;;;;;;12606033;23;20444;-80
2023/05/10 15:11:27;;;;;;;11.50;9.02;;;;;;;;;;12604574;23;20455;-83
2023/05/10 15:16:31;;;;;;;10.10;8.70;;;;;;;;;;12604507;23;20397;-83
2023/05/10 15:21:38;;;;;;;11.87;9.10;;;;;;;;;;12604526;23;20401;-82
2023/05/10 15:26:40;;;;;;;11.93;9.15;;;;;;;;;;12605793;23;20510;-81
2023/05/10 15:31:44;;;;;;;9.60;8.40;;;;;;;;;;12605362;23;20380;-81
2023/05/10 15:36:46;;;;;;;11.82;9.50;;;;;;;;;;12605215;23;20400;-81
2023/05/10 15:53:13;;;;;;;11.90;8.55;;;;;;;;;;12724638;23;20385;-81
2023/05/10 15:58:15;;;;;;;9.40;7.80;;;;;;;;;;12722335;23;20869;-82
2023/05/10 16:03:18;;;;;;;10.02;7.88;;;;;;;;;;12716032;23;20385;-82
2023/05/10 16:08:21;;;;;;;10.38;8.02;;;;;;;;;;12719961;23;20417;-84
2023/05/10 16:13:23;;;;;;;10.55;8.65;;;;;;;;;;12720952;23;20413;-82
2023/05/10 16:18:26;;;;;;;11.80;8.60;;;;;;;;;;12721235;23;20393;-82
2023/05/10 16:23:29;;;;;;;10.40;8.23;;;;;;;;;;12719654;23;20409;-82
2023/05/10 16:28:32;;;;;;;10.82;7.80;;;;;;;;;;12718348;23;20908;-82
2023/05/10 16:33:34;;;;;;;10.85;8.38;;;;;;;;;;12720085;23;20641;-82
2023/05/10 16:38:38;;;;;;;9.73;7.75;;;;;;;;;;12718712;23;20485;-82
2023/05/10 16:43:40;;;;;;;8.88;7.60;;;;;;;;;;12717312;23;20385;-82
2023/05/10 16:48:42;;;;;;;8.70;7.47;;;;;;;;;;12722219;23;20440;-82
2023/05/10 16:53:46;;;;;;;9.80;7.60;;;;;;;;;;12721463;23;20451;-82
2023/05/10 16:58:49;;;;;;;9.88;8.30;;;;;;;;;;12721376;23;20385;-81
2023/05/10 17:03:51;;;;;;;11.40;9.02;;;;;;;;;;12721419;23;20487;-82
2023/05/10 17:08:55;;;;;;;11.65;9.48;;;;;;;;;;12721115;23;20385;-83
2023/05/10 17:13:58;;;;;;;11.13;8.77;;;;;;;;;;12718886;23;20388;-83
2023/05/10 17:19:00;;;;;;;12.40;9.07;;;;;;;;;;12716924;23;20944;-82
2023/05/10 17:24:04;;;;;;;11.52;9.38;;;;;;;;;;12717065;23;20384;-81
2023/05/10 17:29:07;;;;;;;11.70;9.63;;;;;;;;;;12691778;23;20385;-82
2023/05/10 17:34:09;;;;;;;11.17;9.43;;;;;;;;;;12717379;23;20374;-81
2023/05/10 17:39:13;;;;;;;11.05;9.32;;;;;;;;;;12716195;23;21098;-81
2023/05/10 17:44:15;;;;;;;12.30;9.32;;;;;;;;;;12719626;23;20381;-83
2023/05/10 17:49:18;;;;;;;11.85;8.73;;;;;;;;;;12724637;23;20385;-83
2023/05/10 17:54:21;;;;;;;11.60;9.57;;;;;;;;;;12724680;23;20952;-82
2023/05/10 17:59:24;;;;;;;10.10;8.80;;;;;;;;;;12723890;23;20393;-83
2023/05/10 18:04:26;;;;;;;12.32;9.10;;;;;;;;;;12725922;23;20457;-84
2023/05/10 18:09:30;;;;;;;10.85;8.82;;;;;;;;;;12721487;23;20381;-83
2023/05/10 18:14:33;;;;;;;10.20;8.63;;;;;;;;;;12723990;23;20452;-83
2023/05/10 18:19:37;;;;;;;11.83;8.70;;;;;;;;;;12723564;23;20393;-83
2023/05/10 18:24:41;;;;;;;11.50;8.70;;;;;;;;;;12723882;23;20409;-83
2023/05/10 18:29:43;;;;;;;10.75;8.40;;;;;;;;;;12724584;23;20443;-83
2023/05/10 18:34:45;;;;;;;10.80;8.52;;;;;;;;;;12721647;23;20381;-82
2023/05/10 18:39:49;;;;;;;8.63;7.00;;;;;;;;;;12723248;23;20381;-83
2023/05/10 18:44:51;;;;;;;8.15;6.78;;;;;;;;;;12722771;23;20373;-82
2023/05/10 18:49:54;;;;;;;9.13;6.82;;;;;;;;;;12722972;23;20381;-83
2023/05/10 18:54:57;;;;;;;9.73;6.15;;;;;;;;;;12723368;23;20381;-82
2023/05/10 19:00:00;;;;;;;6.88;5.55;;;;;;;;;;12721738;23;20443;-82
2023/05/10 19:05:02;;;;;;;6.78;5.60;;;;;;;;;;12722689;23;20456;-82
2023/05/10 19:10:08;;;;;;;6.25;5.65;;;;;;;;;;12722383;23;20381;-83
2023/05/10 19:15:12;;;;;;;6.40;5.30;;;;;;;;;;12721688;23;20714;-83
2023/05/10 19:20:14;;;;;;;6.50;5.10;;;;;;;;;;12722148;23;20867;-83
2023/05/10 19:25:18;;;;;;;6.40;4.75;;;;;;;;;;12722449;23;20463;-82
2023/05/10 19:30:20;;;;;;;4.95;4.45;;;;;;;;;;12722620;23;20866;-83
2023/05/10 19:35:24;;;;;;;5.18;3.40;;;;;;;;;;12721828;23;20385;-83
2023/05/10 19:40:27;;;;;;;4.00;3.20;;;;;;;;;;12722278;23;20428;-83
2023/05/10 19:45:31;;;;;;;3.53;3.07;;;;;;;;;;12722688;23;20491;-83
2023/05/10 19:50:33;;;;;;;3.30;2.90;;;;;;;;;;12722042;23;20401;-83
2023/05/10 19:55:38;;;;;;;3.23;2.80;;;;;;;;;;12722544;23;20366;-83
2023/05/10 20:00:40;;;;;;;2.85;2.50;;;;;;;;;;12722900;23;20471;-83
2023/05/10 20:05:43;;;;;;;2.60;2.22;;;;;;;;;;12721453;23;20381;-83
2023/05/10 20:10:47;;;;;;;2.33;2.13;;;;;;;;;;12721139;23;20408;-84
2023/05/10 20:15:50;;;;;;;3.05;2.65;;;;;;;;;;12712514;23;20377;-83
2023/05/10 20:20:57;;;;;;;3.15;2.60;;;;;;;;;;12712512;23;20390;-82
2023/05/10 20:26:03;;;;;;;3.20;2.83;;;;;;;;;;12715362;23;20417;-83
2023/05/10 20:31:06;;;;;;;3.53;2.90;;;;;;;;;;12717319;23;20420;-82
2023/05/10 20:36:10;;;;;;;3.38;3.08;;;;;;;;;;12719319;23;20862;-83
2023/05/10 20:41:15;;;;;;;3.58;3.22;;;;;;;;;;12695526;23;20393;-83
2023/05/10 20:46:18;;;;;;;4.23;3.20;;;;;;;;;;12720569;23;20913;-82
2023/05/10 20:51:20;;;;;;;4.38;3.45;;;;;;;;;;12718402;23;20420;-83
2023/05/10 20:56:25;;;;;;;4.45;3.33;;;;;;;;;;12719661;23;20381;-83
2023/05/10 21:01:27;;;;;;;3.90;3.27;;;;;;;;;;12720530;23;20432;-82
2023/05/10 21:06:30;;;;;;;3.13;2.83;;;;;;;;;;12720952;23;20365;-82
2023/05/10 21:11:35;;;;;;;4.20;2.97;;;;;;;;;;12719905;23;20924;-82
2023/05/10 21:16:37;;;;;;;3.17;2.80;;;;;;;;;;12720304;23;20389;-82
2023/05/10 21:21:39;;;;;;;3.15;2.83;;;;;;;;;;12717948;23;20389;-83
2023/05/10 21:26:43;;;;;;;2.90;2.60;;;;;;;;;;12719554;23;20521;-83
2023/05/10 21:31:45;;;;;;;2.50;2.10;;;;;;;;;;12718949;23;20377;-82
2023/05/10 21:36:48;;;;;;;2.13;1.92;;;;;;;;;;12718161;23;20369;-83
2023/05/10 21:41:51;;;;;;;3.38;2.00;;;;;;;;;;12725475;23;20433;-82
2023/05/10 21:46:54;;;;;;;2.40;1.90;;;;;;;;;;12728798;23;20746;-83
2023/05/10 21:51:56;;;;;;;2.00;1.80;;;;;;;;;;12727125;23;20373;-83
2023/05/10 21:57:00;;;;;;;1.90;1.80;;;;;;;;;;12727073;23;20385;-83
2023/05/10 22:02:02;;;;;;;2.00;1.80;;;;;;;;;;12726529;23;20380;-82
2023/05/10 22:07:04;;;;;;;2.35;1.95;;;;;;;;;;12747717;23;20365;-83
2023/05/10 22:12:08;;;;;;;2.45;2.10;;;;;;;;;;12727196;23;20908;-83
2023/05/10 22:17:10;;;;;;;2.50;2.20;;;;;;;;;;12727739;23;20381;-83
2023/05/10 22:22:12;;;;;;;2.40;2.20;;;;;;;;;;12726162;23;20447;-83
2023/05/10 22:27:16;;;;;;;2.28;1.77;;;;;;;;;;12725822;23;20365;-82
2023/05/10 22:32:18;;;;;;;1.73;1.60;;;;;;;;;;12729483;23;20373;-82
2023/05/10 22:37:21;;;;;;;1.90;1.45;;;;;;;;;;12729138;23;20393;-82
2023/05/10 22:42:24;;;;;;;1.50;1.40;;;;;;;;;;12730411;23;20378;-83
2023/05/10 22:47:27;;;;;;;1.50;1.40;;;;;;;;;;12730050;23;20374;-83
2023/05/10 22:52:29;;;;;;;1.97;1.30;;;;;;;;;;12730189;23;20381;-82
2023/05/10 22:57:33;;;;;;;1.17;1.08;;;;;;;;;;12730455;23;20389;-82
2023/05/10 23:02:35;;;;;;;1.60;1.33;;;;;;;;;;12730900;23;20428;-82
2023/05/10 23:07:38;;;;;;;1.40;1.30;;;;;;;;;;12762878;23;20391;-86
2023/05/10 23:12:41;;;;;;;1.60;1.50;;;;;;;;;;12791550;23;20372;-87
2023/05/10 23:17:43;;;;;;;1.73;1.63;;;;;;;;;;12791240;23;21072;-87
2023/05/10 23:22:46;;;;;;;2.07;1.60;;;;;;;;;;12792240;23;20375;-88
2023/05/10 23:27:50;;;;;;;1.73;1.48;;;;;;;;;;12794153;23;20395;-88
2023/05/10 23:32:52;;;;;;;1.27;1.17;;;;;;;;;;12793912;23;20395;-88
2023/05/10 23:37:54;;;;;;;1.13;1.03;;;;;;;;;;12793012;23;20744;-87
2023/05/10 23:42:58;;;;;;;1.40;1.10;;;;;;;;;;12788618;23;20434;-88
2023/05/10 23:48:02;;;;;;;0.85;0.70;;;;;;;;;;12793379;23;20367;-88
2023/05/10 23:53:04;;;;;;;1.65;0.70;;;;;;;;;;12802477;23;20426;-88
2023/05/10 23:58:08;;;;;;;0.60;0.50;;;;;;;;;;12795312;23;20387;-88
